Florida AWOS List, Phone Numbers

USA |  
| Search AWOS

Rocky Mountain States: Montana | Wyoming | Colorado | New Mexico

Complete weather reports: Florida

Legend: KFNL = METAR available Follow your local AWOS on AV Mobile = METAR available on AV Mobile
Station Florida Location Frequency Phone
KAQQICAO ID KAQQ Apalachicola, Apalachicola
KAAFFAA ID AAF, ASOS, KAAF 221241Z AUTO 06007KT 10SM SCT008 BKN021 OVC070 17/17 A2970 RMK AO2 LTG DSNT SE AND S RAE29 P0001 T01670167 Follow KAAF on AV Mobile APALACHICOLA MUNICIPAL AIRPORT 119.925 850-653-8271
KNAEICAO ID KNAE Astor, Bombing Range Detachment Astor
KAVOFAA ID AVO, AWOS-3 AVON PARK 118.725 863-453-4223
KAGRFAA ID AGR Avon Park Gunnery Range
KBOWFAA ID BOW, AWOS-3, KBOW 221230Z 12006KT 10SM BKN060 18/17 A2983 Follow KBOW on AV Mobile Bartow Municipal 123.775 863-533-9004
F95FAA ID F95, AWOS-AV, KM25 221315Z AUTO 00000KT M1/4SM FG OVC003 11/11 A2991 RMK AO2 Follow  on AV Mobile BLOUNTSTOWN 119.350 850-674-1347
KBCTFAA ID BCT, AWOS-3, KBCT 221147Z 12010G20KT 10SM SCT020 BKN030 22/19 A2980 Follow KBCT on AV Mobile Boca Raton, Boca Raton Airport 121.125 561-391-2696
K1J0FAA ID 1J0, K1J0 221216Z AUTO 01004KT 10SM BKN007 OVC011 16/16 A2978 RMK AO2 RAE14 CIG 005V009 P0000 T01560156 Follow K1J0 on AV Mobile TRI COUNTY AIRPORT
KBKVFAA ID BKV, ASOS, KBKV 221153Z 11005KT 10SM -RA BKN070 OVC100 19/16 A2980 RMK AO2 RAB22 SLP091 P0000 60000 T01890161 10206 20183 55005 Follow KBKV on AV Mobile BROOKSVILLE HERNANDO CO AIRPORT 134.725 352-799-5881
K1J4ICAO ID K1J4 Cape San Blas Coast Guard Station
KNZCICAO ID KNZC Cecil, Naval Air Station
KCLWFAA ID CLW, AWOS-3P, KCLW 221235Z AUTO 11007KT 7SM RA BKN090 OVC110 18/17 A2978 RMK AO2 P0004 Follow KCLW on AV Mobile CLEARWATER 119.225 727-449-2184
2ISFAA ID 2IS, AWOS-3, KM25 221315Z AUTO 00000KT M1/4SM FG OVC003 11/11 A2991 RMK AO2 Follow  on AV Mobile CLEWISTON 124.175 863-983-7020
KX53ICAO ID KX53 Clewiston
KCOFFAA ID COF, KCOF 221158Z AUTO 13020KT 10SM CLR 22/18 A2980 RMK AO2 SLP095 T02210177 10222 20219 57009 $ Follow KCOF on AV Mobile Cocoa / Patrick Air Force Base
KXMRFAA ID XMR, KXMR 221158Z AUTO 13015KT 10SM BKN048 OVC060 22/16 A2981 RMK AO2 SLP098 T02220164 10222 20211 57006 $ Follow KXMR on AV Mobile Cocoa Beach, Cape Canaveral Air Force Station Skid Strip
KCEWFAA ID CEW, ASOS, KCEW 221232Z AUTO VRB03KT 10SM SCT004 OVC043 15/14 A2979 Follow KCEW on AV Mobile CRESTVIEW SIKES AIRPORT 119.275 850-682-1237
KEGIFAA ID EGI, KEGI 221242Z AUTO 36004KT 10SM FEW006 OVC038 15/14 A2976 RMK AO2 SLP080 $ Follow KEGI on AV Mobile Duke Field / Eglin Auxiliary
KCTYFAA ID CTY, KCTY 221235Z AUTO 13009G15KT 10SM BKN120 19/16 A2977 Follow KCTY on AV Mobile CROSS CITY AIRPORT
KCGCFAA ID CGC, AWOS-3, KCGC 221235Z AUTO 00000KT 7SM RA SCT028 SCT037 OVC100 18/17 A2981 RMK AO2 P0005 Follow KCGC on AV Mobile CRYSTAL RIVER 118.325 352-563-6600
KDABFAA ID DAB, ASOS, KDAB 221153Z 15004KT 10SM FEW040 FEW080 BKN140 OVC250 21/17 A2982 Follow KDAB on AV Mobile DAYTONA BEACH INTERNATIONAL 386-253-7469
54JFAA ID 54J, AWOS-3P, KM25 221315Z AUTO 00000KT M1/4SM FG OVC003 11/11 A2991 RMK AO2 Follow  on AV Mobile DEFUNIAK SPRINGS 118.725 850-892-0147
KDEDFAA ID DED, AWOS-3, KDED 221235Z AUTO 13006KT 10SM SCT075 19/17 A2983 RMK AO2 Follow KDED on AV Mobile DELAND 119.575 386-740-5811
KDTSFAA ID DTS, ASOS, KDTS 221153Z AUTO 03007KT 10SM BKN006 OVC043 17/17 A2976 RMK AO2 SLP077 60001 70270 T01720172 10172 20172 51002 $ Follow KDTS on AV Mobile DESTIN-FT WALTON BEACH AIRPORT 133.925 850-654-7128
KX91ICAO ID KX91 Egmont Key Coast Guard Station
KFHBFAA ID FHB, AWOS-3, KFHB 221235Z AUTO 11007KT 10SM SCT075 21/18 A2983 RMK AO1 Follow KFHB on AV Mobile FERNANDINA BEACH 118.075 904-277-7323
KFXEFAA ID FXE, ASOS, KFXE 221153Z COR 14017KT 10SM FEW029 SCT039 OVC070 24/16 A2980 Follow KFXE on AV Mobile FORT LAUDERDALE EXECUTIVE 954-772-2537
KFLLFAA ID FLL, ASOS, KFLL 221153Z 14019G23KT 10SM SCT027 BKN039 BKN080 BKN170 OVC250 23/17 A2979 Follow KFLL on AV Mobile FORT LAUDERDALE/HOLLYWOOD 954-359-7857
KFMYFAA ID FMY, ASOS, KFMY 221153Z 13006KT 7SM -RA OVC100 20/18 A2977 RMK AO2 RAB24 SLP083 P0002 60002 70002 T02000178 10211 20194 55003 Follow KFMY on AV Mobile FORT MYERS PAGE FIELD 239-936-2318
KRSWFAA ID RSW, ASOS, KRSW 221153Z 13006KT 10SM -RA OVC100 19/17 A2978 Follow KRSW on AV Mobile FORT MYERS SW FL INTERNATIONAL AIRPORT 239-561-0966
KX82ICAO ID KX82 Fort Pierce Coast Guard Station
KFPRFAA ID FPR, ASOS, KFPR 221242Z 13016G21KT 10SM SCT023 BKN031 OVC075 22/19 A2981 RMK AO2 RAB24E35 P0002 T02170189 Follow KFPR on AV Mobile FORT PIERCE ST LUCIE 772-489-4281
KX86ICAO ID KX86 Fowey Rocks Coast Guard Station
KX89ICAO ID KX89 Ft. Myers Beach Coast Guard Station
KGNVFAA ID GNV, ASOS, KGNV 221153Z 10006KT 10SM FEW070 SCT085 18/16 A2981 Follow KGNV on AV Mobile GAINESVILLE REGIONAL AIRPORT 352-335-8672
KHWOFAA ID HWO, ASOS, KHWO 221153Z 13013KT 10SM -RA SCT029 BKN039 OVC070 22/17 A2981 RMK AO2 RAB05E27B50 SLP095 P0000 60001 70001 T02220172 10233 20211 56009 Follow KHWO on AV Mobile HOLLYWOOD NORTH PERRY AIRPORT 954-983-5904
X51FAA ID X51, AWOS-3, KM25 221315Z AUTO 00000KT M1/4SM FG OVC003 11/11 A2991 RMK AO2 Follow  on AV Mobile HOMESTEAD 118.375 (305) 247-2791
KHSTFAA ID HST, KHST 221158Z AUTO 13007KT 10SM CLR 22/19 A2979 RMK AO2 SLP091 T02230190 10223 20185 57006 Follow KHST on AV Mobile Homestead Air Force Base
KIMMFAA ID IMM, AWOS-3, KIMM 161355Z AUTO 10007KT FEW016 A3015 RMK A01 P000 Follow KIMM on AV Mobile IMMOKALEE 118.525 239-657-2038
KINFFAA ID INF, AWOS-3, KINF 221235Z AUTO 00000KT 7SM RA BKN050 BKN060 OVC070 18/17 A2982 RMK AO2 Follow KINF on AV Mobile INVERNESS 119.975 352-341-0264
KX84ICAO ID KX84 Islamorada Coast Guard Station
KHEGFAA ID HEG, AWOS-3 JACKSONVILLE 119.275 904-695-0334
KCRGFAA ID CRG, ASOS, KCRG 221205Z 11006KT 10SM FEW022 SCT029 SCT039 19/17 A2984 RMK AO2 T01940172 Follow KCRG on AV Mobile JACKSONVILLE CRAIG MUN 904-646-4670
KJAXFAA ID JAX, ASOS, KJAX 221156Z 09004KT 10SM BKN030 OVC150 18/17 A2984 Follow KJAX on AV Mobile JACKSONVILLE INTERNATIONAL 904-741-4304
KNIPFAA ID NIP, KNIP 221153Z 08004KT 10SM BKN029 BKN050 OVC250 19/18 A2984 RMK AO2 SLP101 T01890178 10206 20189 56007 $ Follow KNIP on AV Mobile JACKSONVILLE NAVAL AIR STN
KVQQFAA ID VQQ, AWOS-3, KVQQ 221150Z VRB04KT 10SM SCT030 18/18 A2983 Follow KVQQ on AV Mobile Jacksonville, Cecil Field Airport 125.275 904-778-6934
KNENFAA ID NEN NOLF WHITEHOUSE FIELD, FL
KX80ICAO ID KX80 Jupiter Inlet Coast Guard Station
KEYWFAA ID EYW, ASOS, KEYW 221153Z 16017KT 10SM -RA BKN100 OVC120 23/20 A2976 Follow KEYW on AV Mobile KEY WEST INTERNATIONAL AIRPORT 119.65 305-292-4046
KNQXFAA ID NQX, KNQX 221153Z 17017G22KT 8SM -RA SCT020 OVC090 22/19 A2976 RMK AO2 SLP077 T2 SET P0002 60002 70002 T02170194 10233 20217 55008 $ Follow KNQX on AV Mobile KEY WEST NAVAL AIR STATION
K42JFAA ID 42J, AWOS-3, K42J 221235Z AUTO 12004KT 10SM CLR 18/17 A2983 RMK AO1 TSNO Follow K42J on AV Mobile KEYSTONE HEIGHTS 124.275 352-473-8273
KLCQFAA ID LCQ, AWOS-3, KLCQ 221235Z AUTO 11004KT 10SM SCT075 BKN120 17/17 A2981 RMK AO2 Follow KLCQ on AV Mobile LAKE CITY 120.675 386-754-9366
X07FAA ID X07, AWOS-3, KM25 221315Z AUTO 00000KT M1/4SM FG OVC003 11/11 A2991 RMK AO2 Follow  on AV Mobile LAKE WALES 124.225 863-678-1334
KX81ICAO ID KX81 Lake Worth Inlet
KLALFAA ID LAL, AWOS-3PT, KLAL 221157Z 13007KT 5SM -RA BKN050 OVC090 19/17 A2982 Follow KLAL on AV Mobile Lakeland Regional 118.025 863-834-2030
KLEEFAA ID LEE, ASOS, KLEE 221153Z 12008KT 10SM FEW028 20/17 A2982 RMK AO2 SLP095 T02000167 10206 20194 56007 Follow KLEE on AV Mobile LEESBURG REGIONAL AIRPORT 134.325 352-787-1565
K24JFAA ID 24J, AWOS-3, K24J 221235Z AUTO 08007KT 10SM SCT050 BKN060 OVC120 20/17 A2980 RMK A01 Follow K24J on AV Mobile LIVE OAK 118.225 386-362-1731
KX88ICAO ID KX88 Marathon Coast Guard Station
KMTHFAA ID MTH, ASOS, KMTH 221153Z AUTO 17011G18KT 10SM FEW030 SCT100 BKN120 24/19 A2977 RMK AO2 SLP080 T02440194 10244 20239 57005 Follow KMTH on AV Mobile MARATHON AIRPORT 135.525 305-743-8373
KMKYFAA ID MKY, AWOS-3, KMKY 221235Z AUTO 14012G21KT 5SM SCT031 BKN043 OVC070 19/18 A2976 RMK AO1 P0010 Follow KMKY on AV Mobile MARCO ISLAND 120.075 239-394-8187
KMAIFAA ID MAI, ASOS, KMAI 221153Z AUTO 30003KT 10SM OVC006 16/16 A2976 RMK AO2 RAE1055 SLP075 P0000 60022 7//// T01610156 10161 20156 55007 Follow KMAI on AV Mobile MARIANNA MUNICIPAL AIRPORT 133.525 850-482-6082
KHRTFAA ID HRT, KHRT 221231Z 01006KT 10SM BKN005 15/14 A2975 RMK RAE19DZB19E30 SLP076 $ Follow KHRT on AV Mobile Hurlburt Field
KNRBFAA ID NRB, KNRB 221152Z 11012KT 10SM SCT015 BKN040 BKN080 OVC250 19/17 A2984 RMK AO2 SLP104 60003 70003 T01940172 10200 20194 56005 Follow KNRB on AV Mobile MAYPORT NAVAL AIR FACILITY
KMLBFAA ID MLB, ASOS, KMLB 221153Z 12011G20KT 9SM -RA SCT032 BKN040 OVC070 21/18 A2981 Follow KMLB on AV Mobile MELBOURNE INTERNATIONAL 321-723-7403
KCOIFAA ID COI, AWOS-3 Merritt Island, Merritt Island Airport 119.025 321-986-8864
KTNTFAA ID TNT, AWOS-3 MIAMI 119.075 (239) 695-9198
KX87ICAO ID KX87 Miami Beach Coast Guard Station
KAMXICAO ID KAMX Miami Nexrad
KTMBFAA ID TMB, ASOS, KTMB 221153Z AUTO 16003KT 10SM CLR 22/17 A2980 Follow KTMB on AV Mobile KENDALL-TAMIAMI EXEC AIRPORT 305-235-1332
KMIAFAA ID MIA, ASOS, KMIA 221153Z 13008KT 10SM FEW027 FEW050 BKN200 OVC250 20/18 A2980 Follow KMIA on AV Mobile MIAMI INTERNATIONAL AIRPORT 305-870-0235
KOPFFAA ID OPF, KOPF 221153Z 15012KT 10SM FEW033 FEW046 23/18 A2980 Follow KOPF on AV Mobile MIAMI OPA LOCKA AIRPORT
KNFJFAA ID NFJ CHOCTAW, WHITING FIELD, NOLF
KNSEFAA ID NSE, KNSE 221224Z VRB03KT 2 1/2SM -RA BR OVC003 15/14 A2979 RMK P0000 T01500144 Follow KNSE on AV Mobile MILTON WHITING FIELD (NORTH)
KNDZFAA ID NDZ, KNDZ 221238Z AUTO 01005KT 2SM RA BR BKN004 BKN008 OVC023 17/15 A2979 RMK AO2 RAB10 P0003 T01670150 $ Follow KNDZ on AV Mobile MILTON WHITING FIELD (SOUTH)
KAPFFAA ID APF, ASOS, KAPF 221153Z 11006KT 10SM -RA FEW050 OVC100 20/18 A2976 Follow KAPF on AV Mobile NAPLES MUNICIPAL AIRPORT 239-643-9886
KRRFICAO ID KRRF New Port Richey, Tampa Bay Executive Airport
KEVBFAA ID EVB, AWOS-3, KEVB 221147Z 14010KT 10SM SCT050 BKN080 21/18 A2992 RMK FIRST Follow KEVB on AV Mobile New Smyrna Beach, New Smyrna Beach Municipal Airport 124.625 386-409-4705
KOCFFAA ID OCF, AWOS-3, KOCF 221150Z 00000KT 7SM SCT055 OVC075 18/15 A2981 Follow KOCF on AV Mobile Ocala, Ocala International Airport-Jim Taylor Field 128.125 352-237-8525
KOBEFAA ID OBE, AWOS-3, KOBE 221235Z AUTO 00000KT 10SM SCT030 SCT038 BKN070 18/17 A2983 RMK AO2 Follow KOBE on AV Mobile Okeechobee County Airport 118.675 863-467-1148
KORLFAA ID ORL, ASOS, KORL 221153Z AUTO 10008KT 10SM FEW030 BKN050 BKN075 19/17 A2981 RMK AO2 SLP099 T01940167 10194 20189 56007 Follow KORL on AV Mobile ORLANDO EXECUTIVE AIRPORT 407-658-6753
KMCOFAA ID MCO, ASOS, KMCO 221153Z 11009KT 10SM FEW027 SCT036 BKN070 OVC160 20/17 A2982 Follow KMCO on AV Mobile ORLANDO INTERNATIONAL AIRPORT 407-855-5235
KSFBFAA ID SFB, ASOS, KSFB 221153Z 09004KT 10SM FEW038 SCT065 SCT080 18/16 A2982 Follow KSFB on AV Mobile ORLANDO SANFORD AIRPORT 407-321-9384
KISMFAA ID ISM, AWOS-3, KISM 221156Z 11011KT 10SM FEW030 BKN044 BKN075 21/17 A2982 RMK AO2 SLP100 T02060172 10206 20194 55003 Follow KISM on AV Mobile Orlando, Kissimmee Municipal Airport 128.775 407-847-0533
KOMNFAA ID OMN, AWOS-3, KOMN 221150Z 15004KT 7SM SCT080 20/18 A2982 RMK FIRST Follow KOMN on AV Mobile Ormond Beach, Ormond Beach Municipal Airport 118.475 386-615-7084
K28JFAA ID 28J, AWOS-3, K28J 221235Z AUTO 16005KT 10SM CLR 18/18 A2983 RMK AO2 Follow K28J on AV Mobile PALATKA 119.92 386-312-2212
KFINFAA ID FIN, AWOS-3, KFIN 221150Z 14004KT 10SM SCT070 19/18 A2982 Follow KFIN on AV Mobile PALM COAST 128.325 386-437-7334
KECPFAA ID ECP, ASOS, KECP 221153Z 35006KT 10SM OVC016 16/14 A2974 Follow KECP on AV Mobile PANAMA CITY 119.975 850-235-7857
KPFNICAO ID KPFN, KPFN 030253Z VRB03KT 10SM FEW023 25/23 A2989 Follow KPFN on AV Mobile PANAMA CITY-BAY CTY INTERNATIONAL
KPAMFAA ID PAM, KPAM 221239Z 03003KT 2 3/4SM +RA BR SCT005 BKN010 OVC043 16/15 A2974 RMK AO2A VIS 2 3/4V7 VIS 2 1/4 RWY32 CIG 010V043 BKN V SCT SLP074 Follow KPAM on AV Mobile Tyndall Air Force Base
KPNSFAA ID PNS, ASOS, KPNS 221153Z 00000KT 10SM OVC005 16/14 A2978 Follow KPNS on AV Mobile PENSACOLA REGIONAL AIRPORT 850-436-4799
KNPAFAA ID NPA, KNPA 221156Z 35004KT 7SM OVC007 16/14 A2978 RMK AO2 RAE24 SLP086 P0000 60002 70143 T01560144 10167 20156 53005 $ Follow KNPA on AV Mobile Pensacola, Naval Air Station
K40JFAA ID 40J, AWOS-3PT, K40J 221235Z AUTO 00000KT 10SM SCT100 18/16 A2979 RMK AO2 T01790160 Follow K40J on AV Mobile PERRY-FOLEY AIRPORT 118.375 850-838-3526
FA54FAA ID FA54, Belfort CORAL CREEK
KPCMFAA ID PCM, AWOS-3, KPCM 221235Z AUTO 11004KT 7SM -RA SCT032 SCT050 OVC095 19/18 A2982 RMK AO2 P0002 Follow KPCM on AV Mobile Plant City, Plant City Municipal Airport 120.025 813-764-8259
KPMPFAA ID PMP, ASOS, KPMP 221153Z AUTO 14016G24KT 9SM SCT029 BKN037 BKN080 24/17 A2980 RMK AO2 PK WND 12027/1058 RAB1059E08 SLP092 P0000 60000 T02390172 10239 20233 56007 Follow KPMP on AV Mobile POMPANO BEACH AIRPARK 954-783-3720
K1J3ICAO ID K1J3 Ponce De Leon Inlet
KPGDFAA ID PGD, ASOS, KPGD 221153Z 10005KT 10SM -RA FEW043 SCT060 OVC095 18/16 A2979 RMK AO2 RAE01B27 SLP089 P0000 60000 T01830161 10194 20183 55003 Follow KPGD on AV Mobile PUNTA GORDA CHARLOTTE COUNTY 135.675 941-639-0076
K2J9FAA ID 2J9, AWOS-3, K2J9 041515Z AUTO CLR 09/00 A3037 RMK AO1 Follow K2J9 on AV Mobile QUINCY 118.975 (850) 627-6264
K1J5ICAO ID K1J5 Santa Rosa Coast Guard Station
KSRQFAA ID SRQ, ASOS, KSRQ 221153Z AUTO 09007KT 9SM -RA OVC095 18/17 A2977 Follow KSRQ on AV Mobile SARASOTA/BRADENTON INTERNATIONAL . 124.375 941-359-0117
KSEFFAA ID SEF, AWOS-3 SEBRING 119.475 863-655-6424
KSGJFAA ID SGJ, AWOS-3, KSGJ 221158Z 11007KT 6SM BR BKN080 19/18 A2984 RMK AO2 SLP105 T01940178 10200 20189 56008 Follow KSGJ on AV Mobile St. Augustine, St. Augustine Airport 904-824-7084
KPIEFAA ID PIE, ASOS, KPIE 221153Z 11010KT 10SM -RA OVC100 19/17 A2979 Follow KPIE on AV Mobile ST PETERSBURG/CLEARWATER 727-531-3456
KSPGFAA ID SPG, ASOS, KSPG 221153Z RMK AO2 SLPNO $ Follow KSPG on AV Mobile ST PETERSBURG WHITTED AIRPORT 118.875 727-821-4334
KSUAFAA ID SUA, AWOS-3, KSUA 221147Z 15009KT 7SM BKN035 OVC060 24/18 A2982 Follow KSUA on AV Mobile Stuart, Witham Field Airport 772-692-7399
KTLHFAA ID TLH, ASOS, KTLH 221205Z 05005KT 8SM -RA OVC011 17/17 A2975 Follow KTLH on AV Mobile TALLAHASSEE REGIONAL AIRPORT 850-576-3665
KTBWICAO ID KTBW Tampa Bay Area
KMCFFAA ID MCF, KMCF 221158Z AUTO 11006KT 10SM -RA OVC090 18/18 A2979 RMK AO2 RAE03DZB03E05RAB05 SLP091 P0003 60003 70003 T01840184 10206 20184 53004 $ Follow KMCF on AV Mobile Macdill Air Force Base, Fl.
KTPAFAA ID TPA, ASOS, KTPA 221153Z 14003KT 6SM -RA BR FEW065 OVC100 19/17 A2980 Follow KTPA on AV Mobile TAMPA INTERNATIONAL AIRPORT 813-873-7228
KTPFFAA ID TPF, AWOS-3, KTPF 221235Z AUTO 11006KT 10SM -RA SCT095 OVC120 20/19 A2980 RMK AO2 P0002 Follow KTPF on AV Mobile Tampa, Peter O Knight Airport 118.925 813-251-6824
KVDFFAA ID VDF, AWOS-3, KVDF 221235Z AUTO 12003KT 7SM -RA SCT037 SCT055 OVC110 20/17 A2981 RMK AO2 Follow KVDF on AV Mobile Tampa, Vandenberg Airport 121.125 813-630-0924
KVLGICAO ID KVLG The Villages
KVVGICAO ID KVVG, KVVG 221235Z AUTO 00000KT 10SM 19/19 A2973 RMK A01 Follow KVVG on AV Mobile The Villages
KX68ICAO ID KX68 Titusville, NASA Shuttle Landing Facility
KTIXFAA ID TIX, KTIX 221150Z 12007KT 7SM BKN039 OVC049 21/18 A2983 RMK FIRST Follow KTIX on AV Mobile Titusville
KX21FAA ID X21, AWOS-3 Titusville, Arthur Dunn Air Park 119.725 321-385-0383
KTTSFAA ID TTS, KTTS 221158Z AUTO 14005KT 10SM BKN045 OVC050 22/17 A2982 RMK AO2 SLP102 T02210165 10221 20196 57004 Follow KTTS on AV Mobile Titusville, NASA Shuttle Landing Facility
KVPSFAA ID VPS, KVPS 221155Z 35004KT 10SM BKN004 BKN070 OVC130 15/14 A2976 RMK AO2A CIG 004V008 SLP084 60002 70347 T01490144 10156 20149 55003 $ Follow KVPS on AV Mobile Valparaiso / Eglin Air Force Base
KVNCFAA ID VNC, AWOS-3, KVNC 221235Z AUTO 07007KT 7SM BKN026 BKN031 OVC070 19/19 A2978 RMK AO2 Follow KVNC on AV Mobile VENICE 119.275
KX90ICAO ID KX90 Venice Long Range Navigation
KVRBFAA ID VRB, ASOS, KVRB 221153Z AUTO 14016G22KT 10SM SCT029 BKN033 BKN075 22/18 A2981 Follow KVRB on AV Mobile VERO BEACH MUNICIPAL AIRPORT 772-978-9535
F45FAA ID F45, AWOS-3, KM25 221315Z AUTO 00000KT M1/4SM FG OVC003 11/11 A2991 RMK AO2 Follow  on AV Mobile WEST PALM BEACH 119.975 561-630-6932
KLNAFAA ID LNA, AWOS-3 WEST PALM BEACH 119.925 561-964-0308
KPBIFAA ID PBI, ASOS, KPBI 221230Z 13018KT 10SM BKN027 BKN075 BKN140 23/16 A2981 RMK AO2 T02330161 Follow KPBI on AV Mobile PALM BEACH INTERNATIONAL 123.75 561-683-2548
FD38FAA ID FD38, Belfort WELLINGTON AERO CLUB
KX60FAA ID X60, AWOS-3, KX60 221235Z AUTO 10005KT 10SM FEW060 BKN080 20/17 A2981 RMK A01 Follow KX60 on AV Mobile WILLISTON 118.425 352-528-9949
KGIFFAA ID GIF, ASOS, KGIF 221153Z AUTO 13004KT 10SM OVC045 19/16 A2983 RMK AO2 SLP099 T01940161 10200 20183 53002 Follow KGIF on AV Mobile WINTER HAVENS GILBERT AIRPORT 133.675 863-956-2097
KZPHFAA ID ZPH, ASOS, KZPH 221235Z AUTO 00000KT 7SM DZ SCT036 BKN060 OVC080 18/17 A2982 RMK AO2 T01780165 Follow KZPH on AV Mobile ZEPHYRHILLS 118.975 813-780-0031

Click on the AV Mobile icon AV Mobile icon by any station to follow that AWOS feed on AirportView.net Mobile.

Garmin Target Trend Avemco Insurance Company